Time,TemperatureF,DewpointF,PressureIn,WindDirection,WindDirectionDegrees,WindSpeedMPH,WindSpeedGustMPH,Humidity,HourlyPrecipIn,Conditions,Clouds,dailyrainin,SolarRadiationWatts/m^2,SoftwareType,DateUTC
2013-04-12 00:01:00,36.0,34.0,-100.00,East,84,2.0,6.0,92,0.00,,,0.04,0.000000,,2013-04-12 07:01:00,
2013-04-12 00:11:00,36.0,34.0,-100.00,East,84,2.0,6.0,92,0.00,,,0.04,0.000000,,2013-04-12 07:11:00,
2013-04-12 00:22:00,36.0,34.0,-100.00,East,84,2.0,6.0,92,0.00,,,0.04,0.000000,,2013-04-12 07:22:00,
2013-04-12 00:32:00,36.0,34.0,-100.00,East,84,2.0,6.0,92,0.00,,,0.04,0.000000,,2013-04-12 07:32:00,
2013-04-12 00:52:00,34.0,32.0,-100.00,ESE,109,0.0,5.0,93,0.00,,,0.04,0.000000,,2013-04-12 07:52:00,
2013-04-12 01:03:00,34.0,32.0,-100.00,ESE,109,0.0,5.0,93,0.00,,,0.04,0.000000,,2013-04-12 08:03:00,
2013-04-12 01:12:00,34.0,32.0,-100.00,ESE,109,0.0,5.0,93,0.00,,,0.04,0.000000,,2013-04-12 08:12:00,
2013-04-12 01:22:00,34.0,32.0,-100.00,ESE,109,0.0,5.0,93,0.00,,,0.04,0.000000,,2013-04-12 08:22:00,
2013-04-12 01:32:00,34.0,32.0,-100.00,ESE,109,0.0,5.0,93,0.00,,,0.04,0.000000,,2013-04-12 08:32:00,
2013-04-12 01:52:00,35.0,33.0,-100.00,ESE,106,1.0,5.0,94,0.00,,,0.04,0.000000,,2013-04-12 08:52:00,
2013-04-12 02:02:00,35.0,33.0,-100.00,ESE,106,1.0,5.0,94,0.00,,,0.04,0.000000,,2013-04-12 09:02:00,
2013-04-12 02:12:00,35.0,33.0,-100.00,ESE,106,1.0,5.0,94,0.00,,,0.04,0.000000,,2013-04-12 09:12:00,
2013-04-12 02:22:00,35.0,33.0,-100.00,ESE,106,1.0,5.0,94,0.00,,,0.04,0.000000,,2013-04-12 09:22:00,
2013-04-12 02:32:00,35.0,33.0,-100.00,ESE,106,1.0,5.0,94,0.00,,,0.04,0.000000,,2013-04-12 09:32:00,
2013-04-12 02:33:00,33.0,31.0,-100.00,West,281,0.0,3.0,94,0.00,,,0.02,0.000000,,2013-04-12 09:33:00,
2013-04-12 02:53:00,33.0,31.0,-100.00,West,281,0.0,3.0,94,0.00,,,0.02,0.000000,,2013-04-12 09:53:00,
2013-04-12 03:02:00,33.0,31.0,-100.00,West,281,0.0,3.0,94,0.00,,,0.02,0.000000,,2013-04-12 10:02:00,
2013-04-12 03:12:00,33.0,31.0,-100.00,West,281,0.0,3.0,94,0.00,,,0.02,0.000000,,2013-04-12 10:12:00,
2013-04-12 03:22:00,33.0,31.0,-100.00,West,281,0.0,3.0,94,0.00,,,0.02,0.000000,,2013-04-12 10:22:00,
2013-04-12 03:53:00,33.0,32.0,-100.00,NW,325,0.0,1.0,95,0.00,,,0.01,0.000000,,2013-04-12 10:53:00,
2013-04-12 04:02:00,33.0,32.0,-100.00,NW,325,0.0,1.0,95,0.00,,,0.01,0.000000,,2013-04-12 11:02:00,
2013-04-12 04:12:00,33.0,32.0,-100.00,NW,325,0.0,1.0,95,0.00,,,0.01,0.000000,,2013-04-12 11:12:00,
2013-04-12 04:22:00,33.0,32.0,-100.00,NW,325,0.0,1.0,95,0.00,,,0.01,0.000000,,2013-04-12 11:22:00,
2013-04-12 04:32:00,33.0,32.0,-100.00,NW,325,0.0,1.0,95,0.00,,,0.01,0.000000,,2013-04-12 11:32:00,
2013-04-12 04:52:00,34.0,33.0,-100.00,NE,37,0.0,3.0,95,0.00,,,0.00,0.000000,,2013-04-12 11:52:00,
2013-04-12 05:02:00,34.0,33.0,-100.00,NE,37,0.0,3.0,95,0.00,,,0.00,0.000000,,2013-04-12 12:02:00,
2013-04-12 05:12:00,34.0,33.0,-100.00,NE,37,0.0,3.0,95,0.00,,,0.00,0.000000,,2013-04-12 12:12:00,
2013-04-12 05:22:00,34.0,33.0,-100.00,NE,37,0.0,3.0,95,0.00,,,0.00,0.000000,,2013-04-12 12:22:00,
2013-04-12 05:32:00,34.0,33.0,-100.00,NE,37,0.0,3.0,95,0.00,,,0.00,0.000000,,2013-04-12 12:32:00,
2013-04-12 05:53:00,34.0,33.0,-100.00,West,271,1.0,3.0,95,0.00,,,0.00,0.000000,,2013-04-12 12:53:00,
2013-04-12 06:03:00,34.0,33.0,-100.00,West,271,1.0,3.0,95,0.00,,,0.00,0.000000,,2013-04-12 13:03:00,
2013-04-12 06:22:00,34.0,33.0,-100.00,West,271,1.0,3.0,95,0.00,,,0.00,0.000000,,2013-04-12 13:22:00,
2013-04-12 06:32:00,34.0,33.0,-100.00,West,271,1.0,3.0,95,0.00,,,0.00,0.000000,,2013-04-12 13:32:00,
2013-04-12 06:53:00,34.0,33.0,-100.00,NNW,337,0.0,2.0,95,0.00,,,0.00,1.000000,,2013-04-12 13:53:00,
2013-04-12 07:03:00,34.0,33.0,-100.00,NNW,337,0.0,2.0,95,0.00,,,0.00,1.000000,,2013-04-12 14:03:00,
2013-04-12 07:12:00,34.0,33.0,-100.00,NNW,337,0.0,2.0,95,0.00,,,0.00,1.000000,,2013-04-12 14:12:00,
2013-04-12 07:22:00,34.0,33.0,-100.00,NNW,337,0.0,2.0,95,0.00,,,0.00,1.000000,,2013-04-12 14:22:00,
2013-04-12 07:32:00,34.0,33.0,-100.00,NNW,337,0.0,2.0,95,0.00,,,0.00,1.000000,,2013-04-12 14:32:00,
2013-04-12 07:33:00,36.0,35.0,-100.00,NW,313,0.0,1.0,95,0.00,,,0.00,10.000000,,2013-04-12 14:33:00,
2013-04-12 07:53:00,36.0,35.0,-100.00,NW,313,0.0,1.0,95,0.00,,,0.00,10.000000,,2013-04-12 14:53:00,
2013-04-12 08:02:00,36.0,35.0,-100.00,NW,313,0.0,1.0,95,0.00,,,0.00,10.000000,,2013-04-12 15:02:00,
2013-04-12 08:12:00,36.0,35.0,-100.00,NW,313,0.0,1.0,95,0.00,,,0.00,10.000000,,2013-04-12 15:12:00,
2013-04-12 08:22:00,36.0,35.0,-100.00,NW,313,0.0,1.0,95,0.00,,,0.00,10.000000,,2013-04-12 15:22:00,
2013-04-12 08:53:00,39.0,37.0,-100.00,SSE,163,1.0,5.0,92,0.00,,,-99.99,45.000000,,2013-04-12 15:53:00,
2013-04-12 09:03:00,39.0,37.0,-100.00,SSE,163,1.0,5.0,92,0.00,,,-99.99,45.000000,,2013-04-12 16:03:00,
2013-04-12 09:13:00,39.0,37.0,-100.00,SSE,163,1.0,5.0,92,0.00,,,-99.99,45.000000,,2013-04-12 16:13:00,
2013-04-12 09:22:00,39.0,37.0,-100.00,SSE,163,1.0,5.0,92,0.00,,,-99.99,45.000000,,2013-04-12 16:22:00,
2013-04-12 09:32:00,39.0,37.0,-100.00,SSE,163,1.0,5.0,92,0.00,,,-99.99,45.000000,,2013-04-12 16:32:00,
2013-04-12 09:53:00,41.0,35.0,-100.00,SSE,168,3.0,8.0,79,0.00,,,0.00,55.000000,,2013-04-12 16:53:00,
2013-04-12 10:03:00,41.0,35.0,-100.00,SSE,168,3.0,8.0,79,0.00,,,0.00,55.000000,,2013-04-12 17:03:00,
2013-04-12 10:12:00,41.0,35.0,-100.00,SSE,168,3.0,8.0,79,0.00,,,0.00,55.000000,,2013-04-12 17:12:00,
2013-04-12 10:22:00,41.0,35.0,-100.00,SSE,168,3.0,8.0,79,0.00,,,0.00,55.000000,,2013-04-12 17:22:00,
2013-04-12 10:32:00,41.0,35.0,-100.00,SSE,168,3.0,8.0,79,0.00,,,0.00,55.000000,,2013-04-12 17:32:00,
2013-04-12 11:03:00,41.0,37.0,-100.00,SSE,161,4.0,9.0,87,0.03,,,0.03,63.000000,,2013-04-12 18:03:00,
2013-04-12 11:14:00,41.0,37.0,-100.00,SSE,161,4.0,9.0,87,0.03,,,0.03,63.000000,,2013-04-12 18:14:00,
2013-04-12 11:29:00,41.0,37.0,-100.00,SSE,161,4.0,9.0,87,0.03,,,0.03,63.000000,,2013-04-12 18:29:00,
2013-04-12 12:26:00,39.0,36.0,-100.00,SSE,160,5.0,15.0,90,0.10,,,0.13,77.000000,,2013-04-12 19:26:00,
2013-04-12 12:32:00,39.0,36.0,-100.00,SSE,160,5.0,15.0,90,0.10,,,0.13,77.000000,,2013-04-12 19:32:00,
2013-04-12 12:53:00,39.0,37.0,-100.00,SSE,164,5.0,16.0,91,0.11,,,0.24,94.000000,,2013-04-12 19:53:00,
2013-04-12 13:02:00,39.0,37.0,-100.00,SSE,164,5.0,16.0,91,0.11,,,0.24,94.000000,,2013-04-12 20:02:00,
2013-04-12 13:12:00,39.0,37.0,-100.00,SSE,164,5.0,16.0,91,0.11,,,0.24,94.000000,,2013-04-12 20:12:00,
2013-04-12 13:22:00,39.0,37.0,-100.00,SSE,164,5.0,16.0,91,0.11,,,0.24,94.000000,,2013-04-12 20:22:00,
2013-04-12 13:32:00,39.0,37.0,-100.00,SSE,164,5.0,16.0,91,0.11,,,0.24,94.000000,,2013-04-12 20:32:00,
2013-04-12 13:52:00,40.0,38.0,-100.00,SSE,166,5.0,12.0,91,0.09,,,0.33,137.000000,,2013-04-12 20:52:00,
2013-04-12 14:02:00,40.0,38.0,-100.00,SSE,166,5.0,12.0,91,0.09,,,0.33,137.000000,,2013-04-12 21:02:00,
2013-04-12 14:11:00,40.0,38.0,-100.00,SSE,166,5.0,12.0,91,0.09,,,0.33,137.000000,,2013-04-12 21:11:00,
2013-04-12 14:21:00,40.0,38.0,-100.00,SSE,166,5.0,12.0,91,0.09,,,0.33,137.000000,,2013-04-12 21:21:00,
2013-04-12 14:32:00,40.0,38.0,-100.00,SSE,166,5.0,12.0,91,0.09,,,0.33,137.000000,,2013-04-12 21:32:00,
2013-04-12 14:53:00,40.0,38.0,-100.00,SSE,162,6.0,16.0,91,0.09,,,0.42,171.000000,,2013-04-12 21:53:00,
2013-04-12 15:02:00,40.0,38.0,-100.00,SSE,162,6.0,16.0,91,0.09,,,0.42,171.000000,,2013-04-12 22:02:00,
2013-04-12 15:12:00,40.0,38.0,-100.00,SSE,162,6.0,16.0,91,0.09,,,0.42,171.000000,,2013-04-12 22:12:00,
2013-04-12 15:22:00,40.0,38.0,-100.00,SSE,162,6.0,16.0,91,0.09,,,0.42,171.000000,,2013-04-12 22:22:00,
2013-04-12 15:32:00,40.0,38.0,-100.00,SSE,162,6.0,16.0,91,0.09,,,0.42,171.000000,,2013-04-12 22:32:00,
2013-04-12 16:03:00,40.0,37.0,-100.00,SSE,153,6.0,16.0,90,0.05,,,0.47,180.000000,,2013-04-12 23:03:00,
2013-04-12 16:12:00,40.0,37.0,-100.00,SSE,153,6.0,16.0,90,0.05,,,0.47,180.000000,,2013-04-12 23:12:00,
2013-04-12 16:22:00,40.0,37.0,-100.00,SSE,153,6.0,16.0,90,0.05,,,0.47,180.000000,,2013-04-12 23:22:00,
2013-04-12 16:32:00,40.0,37.0,-100.00,SSE,153,6.0,16.0,90,0.05,,,0.47,180.000000,,2013-04-12 23:32:00,
2013-04-12 16:52:00,40.0,38.0,-100.00,SSE,157,6.0,18.0,91,0.08,,,0.55,107.000000,,2013-04-12 23:52:00,
2013-04-12 17:02:00,40.0,38.0,-100.00,SSE,157,6.0,18.0,91,0.08,,,0.55,107.000000,,2013-04-13 00:02:00,
2013-04-12 17:12:00,40.0,38.0,-100.00,SSE,157,6.0,18.0,91,0.08,,,0.55,107.000000,,2013-04-13 00:12:00,
2013-04-12 17:22:00,40.0,38.0,-100.00,SSE,157,6.0,18.0,91,0.08,,,0.55,107.000000,,2013-04-13 00:22:00,
2013-04-12 17:32:00,40.0,38.0,-100.00,SSE,157,6.0,18.0,91,0.08,,,0.55,107.000000,,2013-04-13 00:32:00,
2013-04-12 17:52:00,41.0,39.0,-100.00,SSE,150,5.0,15.0,91,0.03,,,0.58,124.000000,,2013-04-13 00:52:00,
2013-04-12 18:02:00,41.0,39.0,-100.00,SSE,150,5.0,15.0,91,0.03,,,0.58,124.000000,,2013-04-13 01:02:00,
2013-04-12 18:12:00,41.0,39.0,-100.00,SSE,150,5.0,15.0,91,0.03,,,0.58,124.000000,,2013-04-13 01:12:00,
2013-04-12 18:22:00,41.0,39.0,-100.00,SSE,150,5.0,15.0,91,0.03,,,0.58,124.000000,,2013-04-13 01:22:00,
2013-04-12 18:32:00,41.0,39.0,-100.00,SSE,150,5.0,15.0,91,0.03,,,0.58,124.000000,,2013-04-13 01:32:00,
2013-04-12 18:52:00,42.0,40.0,-100.00,SE,145,6.0,16.0,93,0.05,,,0.63,80.000000,,2013-04-13 01:52:00,
2013-04-12 19:02:00,42.0,40.0,-100.00,SE,145,6.0,16.0,93,0.05,,,0.63,80.000000,,2013-04-13 02:02:00,
2013-04-12 19:12:00,42.0,40.0,-100.00,SE,145,6.0,16.0,93,0.05,,,0.63,80.000000,,2013-04-13 02:12:00,
2013-04-12 19:22:00,42.0,40.0,-100.00,SE,145,6.0,16.0,93,0.05,,,0.63,80.000000,,2013-04-13 02:22:00,
2013-04-12 19:32:00,42.0,40.0,-100.00,SE,145,6.0,16.0,93,0.05,,,0.63,80.000000,,2013-04-13 02:32:00,
2013-04-12 19:53:00,42.0,40.0,-100.00,West,262,5.0,13.0,94,0.07,,,0.70,25.000000,,2013-04-13 02:53:00,
2013-04-12 20:02:00,42.0,40.0,-100.00,West,262,5.0,13.0,94,0.07,,,0.70,25.000000,,2013-04-13 03:02:00,
2013-04-12 20:12:00,42.0,40.0,-100.00,West,262,5.0,13.0,94,0.07,,,0.70,25.000000,,2013-04-13 03:12:00,
2013-04-12 20:22:00,42.0,40.0,-100.00,West,262,5.0,13.0,94,0.07,,,0.70,25.000000,,2013-04-13 03:22:00,
2013-04-12 20:32:00,42.0,40.0,-100.00,West,262,5.0,13.0,94,0.07,,,0.70,25.000000,,2013-04-13 03:32:00,
2013-04-12 20:53:00,40.0,37.0,-100.00,West,259,4.0,10.0,89,0.01,,,0.71,3.000000,,2013-04-13 03:53:00,
2013-04-12 21:02:00,40.0,37.0,-100.00,West,259,4.0,10.0,89,0.01,,,0.71,3.000000,,2013-04-13 04:02:00,
2013-04-12 21:12:00,40.0,37.0,-100.00,West,259,4.0,10.0,89,0.01,,,0.71,3.000000,,2013-04-13 04:12:00,
2013-04-12 21:22:00,40.0,37.0,-100.00,West,259,4.0,10.0,89,0.01,,,0.71,3.000000,,2013-04-13 04:22:00,
2013-04-12 21:32:00,40.0,37.0,-100.00,West,259,4.0,10.0,89,0.01,,,0.71,3.000000,,2013-04-13 04:32:00,
2013-04-12 21:53:00,38.0,36.0,-100.00,South,177,0.0,6.0,92,0.00,,,0.71,0.000000,,2013-04-13 04:53:00,
2013-04-12 22:02:00,38.0,36.0,-100.00,South,177,0.0,6.0,92,0.00,,,0.71,0.000000,,2013-04-13 05:02:00,
2013-04-12 22:12:00,38.0,36.0,-100.00,South,177,0.0,6.0,92,0.00,,,0.71,0.000000,,2013-04-13 05:12:00,
2013-04-12 22:22:00,38.0,36.0,-100.00,South,177,0.0,6.0,92,0.00,,,0.71,0.000000,,2013-04-13 05:22:00,
2013-04-12 22:31:00,38.0,36.0,-100.00,South,177,0.0,6.0,92,0.00,,,0.71,0.000000,,2013-04-13 05:31:00,
2013-04-12 22:33:00,38.0,36.0,-100.00,West,269,4.0,11.0,91,0.03,,,0.74,0.000000,,2013-04-13 05:33:00,
2013-04-12 22:52:00,38.0,36.0,-100.00,West,269,4.0,11.0,91,0.03,,,0.74,0.000000,,2013-04-13 05:52:00,
2013-04-12 23:02:00,38.0,36.0,-100.00,West,269,4.0,11.0,91,0.03,,,0.74,0.000000,,2013-04-13 06:02:00,
2013-04-12 23:12:00,38.0,36.0,-100.00,West,269,4.0,11.0,91,0.03,,,0.74,0.000000,,2013-04-13 06:12:00,
2013-04-12 23:23:00,38.0,36.0,-100.00,West,269,4.0,11.0,91,0.03,,,0.74,0.000000,,2013-04-13 06:23:00,
2013-04-12 23:55:00,37.0,35.0,-100.00,SW,220,0.0,14.0,93,0.05,,,0.79,0.000000,,2013-04-13 06:55:00,